EGTELPFR

Guest
Details From EGTE - Exeter
To LPFR - Faro
Flight Number -
Tags Generated
Created
Modified
Stats Distance 847 nm / 1,570 km
Max Altitude 0 ft / 0 m
Waypoints 4
Social Downloads 1
Likes 0
Share VATSIM

Download

Looking for another format? Having issues loading an existing format? Contact us
Advertisement - Login to hide

Notes

Generated

Route

EGTE MOSEN VFA10 LPFR

ID Type Via Altitude Latitude Longitude Leg Dist Tot Dist Heading (true) Name
O EGTE APT - 0 ft / 0 m 50.73851˚ -3.42704˚ - 0 nm - -
MOSEN FIX - 0 ft / 0 m 41.78654˚ -6.56085˚ 553 nm 553 nm 195° / 192° -
VFA10 FIX - 0 ft / 0 m 37.01784˚ -7.99512˚ 294 nm 847 nm 194° / 193° -
O LPFR APT - 0 ft / 0 m 37.01729˚ -7.98609˚ 0 nm 847 nm 94° / 94° -

Altitude Profile

Advertisement - Login to hide

Weather


0- 5 10 15 20 25 30 35+ Temperature / ° C

Clouds and Precipitation
Forecast for 2017-12-18 12:00 UTC. Updated 2 hours ago

Ground ~20,000 ft ~40,000 ft Winds

EGTE

Details ICAO EGTE (EXT)
Name Exeter
Region United Kingdom
Timezone Europe/London (UTC+0.0)
Stats Elevation 102 ft / 31 m (AMSL)
Location 50.734260° -3.414000°
Runways 1
Magnetic Variation 1.512° W

METAR

EGTE 181320Z VRB02KT CAVOK 09/04 Q1031

Decode

TAF

Not found

Departure Runways

ID Width Length Bearing (true) Bearing (mag) Surface Threshold Offset Overrun Length
08 151 ft / 46 m 6,666 ft / 2,032 m 76.09° 77.60° Asphalt 0 ft / 0 m 0 ft / 0 m
26 151 ft / 46 m 6,666 ft / 2,032 m 256.11° 257.62° Asphalt 0 ft / 0 m 0 ft / 0 m

LPFR

Details ICAO LPFR (FAO)
Name Faro
Region Portugal
Timezone Europe/Lisbon (UTC+0.0)
Stats Elevation 24 ft / 7 m (AMSL)
Location 37.015336° -7.972327°
Runways 1
Magnetic Variation 1.935° W

METAR

LPFR 181300Z 09007KT 070V140 CAVOK 16/03 Q1029

Decode

TAF

TAF LPFR 181100Z 1812/1912 08012KT CAVOK BECMG 1814/1817 02007KT BECMG 1900/1902 VRB03KT BECMG 1910/1912 09010KT

Decode

Destination Runways

ID Width Length Bearing (true) Bearing (mag) Surface Threshold Offset Overrun Length
10 148 ft / 45 m 8,148 ft / 2,484 m 100.08° 102.01° Asphalt 148 ft / 45 m 0 ft / 0 m
28 148 ft / 45 m 8,148 ft / 2,484 m 280.10° 282.03° Asphalt 148 ft / 45 m 0 ft / 0 m

Approach Navaids

Runway Type Ident Frequency Range Bearing (true) Bearing (mag) Slope Elevation
28 Localiser IIF 109.50 MHz 18 nm / 33 km 280.16° 282.10° - 24 ft / 7 m (AMSL)
28 Glidescope IIF 109.50 MHz 10 nm / 19 km 280.09° 282.02° 3.00° 24 ft / 7 m (AMSL)
28 DME IIF 109.50 MHz 18 nm / 33 km - - - 24 ft / 7 m (AMSL)

Popular Alternatives